createdAt,value
2022-11-03T00:00:55.509Z,38.07
2022-11-03T00:06:07.677Z,37.68
2022-11-03T00:11:09.163Z,37.97
2022-11-03T00:16:08.890Z,37.42
2022-11-03T00:21:10.561Z,37.72
2022-11-03T00:26:11.486Z,37.65
2022-11-03T00:31:12.544Z,37.82
2022-11-03T00:36:14.988Z,37.99
2022-11-03T00:41:14.862Z,38.20
2022-11-03T00:46:13.768Z,39.05
2022-11-03T00:51:15.971Z,39.44
2022-11-03T00:56:16.621Z,41.21
2022-11-03T01:01:18.173Z,43.24
2022-11-03T01:06:35.922Z,43.51
2022-11-03T01:11:46.528Z,44.67
2022-11-03T01:16:45.494Z,44.90
2022-11-03T01:21:46.146Z,44.73
2022-11-03T01:26:45.028Z,45.30
2022-11-03T01:31:43.953Z,45.72
2022-11-03T01:36:42.758Z,45.58
2022-11-03T01:41:44.786Z,46.05
2022-11-03T01:46:47.829Z,46.04
2022-11-03T01:51:50.323Z,46.96
2022-11-03T01:56:52.036Z,47.07
2022-11-03T02:01:51.384Z,47.46
2022-11-03T02:06:54.781Z,47.27
2022-11-03T02:12:10.135Z,47.70
2022-11-03T02:17:12.556Z,48.53
2022-11-03T02:22:31.501Z,49.81
2022-11-03T02:27:32.334Z,50.13
2022-11-03T02:32:35.021Z,50.85
2022-11-03T02:37:38.460Z,51.19
2022-11-03T02:42:41.151Z,51.39
2022-11-03T02:47:41.089Z,50.82
2022-11-03T02:52:41.751Z,50.86
2022-11-03T02:57:47.520Z,51.46
2022-11-03T03:02:56.457Z,51.37
2022-11-03T03:08:02.133Z,51.31
2022-11-03T03:13:05.138Z,51.38
2022-11-03T03:18:16.399Z,51.28
2022-11-03T03:23:20.295Z,50.91
2022-11-03T03:28:23.880Z,51.36
2022-11-03T03:33:23.214Z,50.90
2022-11-03T03:38:27.653Z,52.21
2022-11-03T03:43:30.272Z,51.90
2022-11-03T03:48:29.006Z,52.24
2022-11-03T03:53:32.034Z,52.46
2022-11-03T03:58:32.234Z,52.49
2022-11-03T04:03:31.061Z,51.85
2022-11-03T04:08:29.912Z,52.98
2022-11-03T04:13:45.800Z,53.06
2022-11-03T04:19:03.685Z,53.56
2022-11-03T04:24:02.655Z,55.89
2022-11-03T04:29:03.552Z,55.67
2022-11-03T04:34:06.051Z,56.05
2022-11-03T04:39:16.676Z,56.13
2022-11-03T04:44:17.610Z,55.47
2022-11-03T04:49:23.552Z,56.00
2022-11-03T04:54:24.950Z,56.35
2022-11-03T04:59:23.736Z,56.38
2022-11-03T05:04:23.918Z,55.88
2022-11-03T05:09:28.154Z,55.92
2022-11-03T05:14:30.182Z,56.04
2022-11-03T05:19:34.667Z,57.05
2022-11-03T05:24:34.687Z,56.61
2022-11-03T05:29:37.769Z,56.81
2022-11-03T05:34:42.904Z,57.35
2022-11-03T05:39:44.646Z,57.57
2022-11-03T05:44:43.581Z,57.30
2022-11-03T05:49:43.782Z,57.56
2022-11-03T05:54:42.577Z,58.80
2022-11-03T05:59:41.466Z,57.96
2022-11-03T06:04:40.643Z,58.10
2022-11-03T06:09:40.850Z,58.13
2022-11-03T06:14:40.077Z,57.42
2022-11-03T06:19:41.430Z,56.97
2022-11-03T06:24:41.588Z,56.55
2022-11-03T06:29:40.335Z,56.55
2022-11-03T06:34:43.226Z,56.47
2022-11-03T06:39:43.370Z,56.67
2022-11-03T06:44:43.916Z,56.37
2022-11-03T06:49:42.694Z,56.01
2022-11-03T06:54:41.727Z,56.31
2022-11-03T06:59:42.173Z,55.91
2022-11-03T07:04:41.341Z,57.11
2022-11-03T07:09:40.306Z,56.81
2022-11-03T07:14:39.261Z,56.15
2022-11-03T07:19:42.956Z,55.10
2022-11-03T07:24:43.390Z,55.73
2022-11-03T07:29:43.185Z,54.68
2022-11-03T07:34:43.447Z,54.02
2022-11-03T07:39:42.405Z,52.71
2022-11-03T07:44:42.181Z,52.47
2022-11-03T07:49:42.816Z,51.74
2022-11-03T07:54:41.832Z,51.86
2022-11-03T07:59:43.199Z,50.63
2022-11-03T08:04:43.441Z,49.98
2022-11-03T08:09:42.252Z,49.05
2022-11-03T08:14:40.945Z,48.91
2022-11-03T08:19:39.707Z,48.95
2022-11-03T08:24:39.800Z,48.81
2022-11-03T08:29:38.592Z,48.23
2022-11-03T08:34:37.299Z,47.27
2022-11-03T08:39:36.349Z,45.43
2022-11-03T08:44:36.485Z,43.66
2022-11-03T08:49:35.196Z,42.53
2022-11-03T08:54:33.948Z,41.73
2022-11-03T08:59:32.610Z,40.61
2022-11-03T09:04:32.741Z,40.52
2022-11-03T09:14:50.411Z,39.83
2022-11-03T09:19:50.566Z,39.08
2022-11-03T09:24:49.356Z,38.52
2022-11-03T09:30:11.760Z,39.14
2022-11-03T09:35:09.891Z,38.12
2022-11-03T09:40:09.631Z,36.73
2022-11-03T09:45:09.929Z,40.44
2022-11-03T09:50:15.601Z,35.15
2022-11-03T09:55:16.474Z,36.04
2022-11-03T10:00:19.743Z,32.65
2022-11-03T10:05:24.280Z,31.16
2022-11-03T10:10:23.469Z,32.72
2022-11-03T10:15:25.155Z,31.08
2022-11-03T10:20:25.242Z,30.42
2022-11-03T10:25:35.032Z,30.27
2022-11-03T10:30:45.468Z,29.47
2022-11-03T10:35:53.877Z,29.15
2022-11-03T10:40:52.709Z,29.17
2022-11-03T10:45:55.706Z,28.25
2022-11-03T10:50:56.039Z,28.38
2022-11-03T10:55:55.881Z,27.36
2022-11-03T11:00:54.763Z,27.17
2022-11-03T11:05:55.227Z,26.79
2022-11-03T11:10:55.423Z,26.64
2022-11-03T11:15:55.524Z,26.22
2022-11-03T11:20:56.965Z,26.10
2022-11-03T11:26:15.532Z,25.94
2022-11-03T11:31:31.569Z,26.00
2022-11-03T11:36:34.279Z,25.45
2022-11-03T11:42:12.068Z,25.74
2022-11-03T11:47:24.028Z,26.03
2022-11-03T11:52:25.905Z,26.59
2022-11-03T11:57:25.812Z,27.07
2022-11-03T12:02:26.070Z,27.58
2022-11-03T12:07:43.077Z,27.48
2022-11-03T12:12:42.125Z,27.95
2022-11-03T12:17:46.194Z,27.40
2022-11-03T12:22:54.057Z,27.52
2022-11-03T12:27:53.023Z,26.98
2022-11-03T12:32:55.466Z,27.60
2022-11-03T12:37:58.012Z,27.80
2022-11-03T12:42:56.905Z,27.33
2022-11-03T12:47:55.789Z,27.62
2022-11-03T12:52:56.480Z,26.59
2022-11-03T12:57:55.215Z,26.45
2022-11-03T13:02:54.711Z,26.15
2022-11-03T13:07:54.293Z,25.42
2022-11-03T13:12:55.432Z,25.90
2022-11-03T13:23:23.026Z,26.12
2022-11-03T13:28:27.686Z,25.94
2022-11-03T13:33:31.159Z,26.02
2022-11-03T13:38:29.948Z,25.96
2022-11-03T13:43:30.192Z,25.78
2022-11-03T14:09:42.225Z,29.20
2022-11-03T14:14:42.422Z,27.22
2022-11-03T14:19:45.074Z,30.86
2022-11-03T14:24:47.529Z,28.56
2022-11-03T14:29:49.897Z,29.77
2022-11-03T14:34:49.174Z,29.00
2022-11-03T14:39:48.188Z,33.02
2022-11-03T14:44:49.053Z,30.48
2022-11-03T14:49:48.793Z,30.06
2022-11-03T14:54:47.641Z,30.61
2022-11-03T14:59:50.534Z,30.97
2022-11-03T15:04:53.468Z,32.07
2022-11-03T15:09:52.347Z,33.04
2022-11-03T15:14:51.272Z,34.30
2022-11-03T15:19:50.213Z,35.01
2022-11-03T15:30:10.373Z,36.48
2022-11-03T15:35:10.454Z,36.74
2022-11-03T15:40:13.807Z,37.32
2022-11-03T15:45:14.931Z,38.40
2022-11-03T15:50:18.266Z,38.96
2022-11-03T15:55:26.586Z,39.85
2022-11-03T16:00:30.333Z,40.25
2022-11-03T16:05:44.698Z,40.40
2022-11-03T16:10:51.947Z,40.42
2022-11-03T16:16:03.211Z,40.86
2022-11-03T16:21:08.720Z,40.94
2022-11-03T16:26:09.170Z,41.66
2022-11-03T16:31:08.182Z,41.87
2022-11-03T16:36:08.468Z,41.78
2022-11-03T16:41:10.089Z,42.10
2022-11-03T16:46:10.725Z,42.00
2022-11-03T16:51:12.576Z,42.52
2022-11-03T16:56:14.253Z,42.70
2022-11-03T17:01:20.074Z,42.75
2022-11-03T17:06:22.177Z,43.02
2022-11-03T17:11:37.460Z,43.12
2022-11-03T17:17:26.382Z,43.57
2022-11-03T17:22:31.604Z,43.42
2022-11-03T17:27:41.158Z,43.76
2022-11-03T17:32:46.578Z,43.41
2022-11-03T17:37:47.015Z,43.76
2022-11-03T17:42:47.385Z,43.85
2022-11-03T17:47:46.317Z,44.14
2022-11-03T17:52:46.882Z,44.68
2022-11-03T17:57:47.229Z,44.27
2022-11-03T18:02:46.605Z,44.17
2022-11-03T18:07:45.551Z,44.57
2022-11-03T18:13:07.519Z,44.68
2022-11-03T18:18:18.899Z,44.90
2022-11-03T18:23:20.405Z,44.93
2022-11-03T18:28:20.814Z,44.69
2022-11-03T18:33:23.831Z,44.73
2022-11-03T18:38:25.093Z,45.10
2022-11-03T18:43:26.505Z,45.64
2022-11-03T18:48:25.447Z,45.86
2022-11-03T18:53:25.973Z,45.97
2022-11-03T18:58:26.708Z,45.57
2022-11-03T19:03:25.500Z,45.81
2022-11-03T19:08:28.708Z,46.03
2022-11-03T19:13:32.939Z,46.35
2022-11-03T19:18:36.967Z,46.34
2022-11-03T19:23:35.945Z,46.49
2022-11-03T19:28:36.266Z,46.28
2022-11-03T19:33:42.136Z,46.38
2022-11-03T19:38:41.732Z,46.44
2022-11-03T19:43:41.999Z,46.56
2022-11-03T19:48:42.906Z,45.94
2022-11-03T19:53:46.876Z,46.04
2022-11-03T19:58:47.535Z,47.27
2022-11-03T20:03:46.809Z,46.97
2022-11-03T20:08:47.448Z,47.28
2022-11-03T20:13:47.806Z,47.02
2022-11-03T20:18:48.437Z,46.62
2022-11-03T20:23:49.344Z,46.56
2022-11-03T20:28:50.052Z,46.81
2022-11-03T20:33:49.520Z,46.41
2022-11-03T20:38:52.596Z,46.47
2022-11-03T20:43:55.584Z,46.66
2022-11-03T20:48:56.317Z,46.55
2022-11-03T20:53:56.021Z,46.89
2022-11-03T20:58:57.205Z,47.25
2022-11-03T21:04:00.430Z,47.09
2022-11-03T21:09:00.072Z,47.21
2022-11-03T21:14:01.790Z,47.41
2022-11-03T21:19:17.801Z,46.90
2022-11-03T21:24:16.739Z,46.70
2022-11-03T21:29:32.945Z,47.22
2022-11-03T21:34:35.865Z,47.37
2022-11-03T21:39:34.863Z,48.65
2022-11-03T21:44:38.913Z,48.94
2022-11-03T21:49:46.382Z,49.56
2022-11-03T21:54:45.753Z,48.78
2022-11-03T21:59:48.712Z,49.07
2022-11-03T22:04:50.197Z,49.91
2022-11-03T22:09:51.268Z,50.63
2022-11-03T22:15:10.419Z,50.33
2022-11-03T22:20:27.745Z,50.01
2022-11-03T22:25:44.081Z,50.53
2022-11-03T22:31:01.815Z,50.10
2022-11-03T22:36:17.511Z,49.87
2022-11-03T22:41:39.905Z,50.15
2022-11-03T22:46:40.046Z,49.58
2022-11-03T22:51:38.954Z,50.42
2022-11-03T22:56:38.845Z,50.47
2022-11-03T23:01:39.253Z,51.31
2022-11-03T23:06:40.634Z,50.89
2022-11-03T23:11:39.684Z,50.65
2022-11-03T23:16:42.190Z,50.81
2022-11-03T23:21:41.011Z,51.07
2022-11-03T23:26:40.110Z,51.42
2022-11-03T23:31:41.084Z,51.67
2022-11-03T23:36:39.982Z,52.27
2022-11-03T23:41:38.747Z,52.74
2022-11-03T23:46:54.909Z,52.45
2022-11-03T23:51:55.077Z,52.69
2022-11-03T23:57:11.042Z,52.97
